Lake Levels Lake Levels   »   United States   »   Texas
LAKES RIVERS MARINAS NEWS HOUSES EVENTS MAPS
1,681 Lakes:
Lake Store

Lake Levels in Texas, United States

Lake Name Current
Level
Full Pool +/-
Full Pool
Reading
Date - Time
Alan Henry (TX) 2,218.45 2,224.00 -5.55 7/15/2019  12:30 PM
Amistad (TX) 1,087.20 1,117.00 -29.80 7/15/2019  6:15 PM
Amon Carter (TX) 920.37 920.00 0.37 7/15/2019  5:00 PM
Aquilla (TX) 537.69 537.50 0.19 7/15/2019  9:30 AM
Arlington (TX) 549.02 550.00 -0.98 7/15/2019  4:15 PM
Arrowhead (TX) 925.73 926.00 -0.27 7/15/2019  5:00 PM
Athens (TX) 440.45 440.00 0.45 7/15/2019  2:30 PM
Austin (TX) 492.11 492.80 -0.69 7/15/2019  6:00 PM
Bardwell (TX) 421.05 421.00 0.05 7/15/2019  4:30 PM
Belton (TX) 594.88 594.00 0.88 6/26/2019  9:00 AM
Benbrook (TX) 693.64 694.00 -0.36 7/15/2019  4:00 PM
Bob Sandlin (TX) 337.58 337.50 0.08 7/15/2019  9:50 AM
Bonham (TX) 564.80 565.00 -0.20 7/15/2019  2:00 PM
Brady Creek (TX) 1,742.80 1,743.00 -0.20 7/15/2019  6:45 PM
Bridgeport (TX) 836.09 836.00 0.09 7/15/2019  6:00 PM
Brownwood (TX) 1,424.45 1,425.00 -0.55 7/15/2019  6:30 PM
Buchanan (TX) 1,018.03 1,020.50 -2.47 7/15/2019  10:05 AM
Caddo (LA TX) 170.10 168.50 1.60 7/15/2019  5:00 AM
Canyon (TX) 910.20 909.00 1.20 7/15/2019  6:15 PM
Cedar Creek (TX) 321.87 322.00 -0.13 7/15/2019  5:45 PM
Champion Creek (TX) 2,074.74 2,083.00 -8.26 7/15/2019  9:51 AM
Cherokee (TX) 280.12 280.00 0.12 7/15/2019  3:45 PM
Choke Canyon (TX) 205.94 220.50 -14.56 7/15/2019  7:30 AM
Cisco (TX) 1,521.85 1,520.00 1.85 7/15/2019  11:30 PM
Coleman (TX) 1,717.12 1,718.00 -0.88 7/15/2019  6:30 PM
Coleto Creek (TX) 97.30 98.28 -0.98 7/15/2019  6:00 PM
Colorado City (TX) 2,059.85 2,070.20 -10.35 7/15/2019  9:51 AM
Conroe (TX) 200.63 201.00 -0.37 7/15/2019  4:30 PM
Corpus Christi (TX) 93.87 94.00 -0.13 7/15/2019  9:52 AM
Cypress Springs (TX) 179.61 378.00 -198.39 7/15/2019  9:50 AM
E. V. Spence (TX) 1,864.82 1,898.00 -33.18 7/15/2019  4:00 PM
Eagle Mountain (TX) 649.03 649.00 0.03 7/15/2019  5:00 PM
Falcon (TX) 269.50 301.20 -31.70 7/15/2019  6:15 PM
Fork (TX) 402.94 403.00 -0.06 7/15/2019  6:30 PM
Georgetown (TX) 791.81 791.00 0.81 7/15/2019  3:00 PM
Graham (TX) 1,074.94 1,075.00 -0.06 7/15/2019  4:00 PM
Granbury (TX) 692.72 693.00 -0.28 7/15/2019  1:30 PM
Granger (TX) 504.33 504.00 0.33 7/15/2019  3:00 PM
Grapevine (TX) 539.37 535.00 4.37 7/15/2019  6:45 PM
Hords Creek (TX) 1,898.94 1,900.00 -1.06 7/15/2019  2:30 PM
Houston (TX) 41.32 41.70 -0.38 7/15/2019  6:30 PM
Hubbard Creek (TX) 1,183.32 1,183.00 0.32 7/15/2019  3:15 PM
Hubert M Moss (TX) 714.83 715.00 -0.17 7/15/2019  1:15 PM
Inks (TX) 887.14 886.90 0.24 7/15/2019  6:00 PM
Jacksonville (TX) 422.03 422.00 0.03 7/15/2019  12:00 AM
JB Thomas (TX) 2,232.96 2,258.00 -25.04 7/15/2019  3:45 PM
Jim Chapman (TX) 440.16 440.00 0.16 7/15/2019  9:50 AM
Joe Pool (TX) 521.81 522.00 -0.19 7/15/2019  2:00 PM
Kemp (TX) 1,145.33 1,144.00 1.33 7/15/2019  3:15 PM
Kickapoo (TX) 1,045.04 1,045.00 0.04 7/15/2019  2:00 PM
Lake O' the Pines (TX) 235.13 228.50 6.63 7/15/2019  9:50 AM
Lavon (TX) 492.10 492.00 0.10 7/15/2019  3:00 PM
Leon (TX) 1,374.77 7/15/2019  6:45 PM
Lewisville (TX) 521.96 522.00 -0.04 7/15/2019  12:15 PM
Limestone (TX) 362.97 363.00 -0.03 7/15/2019  2:45 PM
Livingston (TX) 130.92 131.00 -0.08 7/15/2019  12:00 AM
Lyndon B. Johnson (TX) 824.62 825.00 -0.38 7/15/2019  10:05 AM
MacKenzie (TX) 3,021.46 3,100.00 -78.54 7/15/2019  6:30 PM
Marble Falls (TX) 736.37 737.00 -0.63 7/15/2019  10:05 AM
Martin Creek (TX) 305.42 306.00 -0.58 7/15/2019  12:30 PM
Medina (TX) 1,063.97 1,062.00 1.97 7/15/2019  3:00 PM
Meredith (TX) 2,889.86 2,941.00 -51.14 7/15/2019  2:30 PM
Mexia (TX) 448.18 448.30 -0.12 7/15/2019  4:15 PM
Millers Creek (TX) 1,334.54 1,334.00 0.54 7/15/2019  6:00 PM
Mineral Wells (TX) 863.49 863.00 0.49 7/15/2019  7:30 PM
Moss Creek (TX) 2,328.19 2,337.00 -8.81 7/15/2019  6:30 PM
Murvaul (TX) 265.35 265.50 -0.15 7/15/2019  9:50 AM
Nacogdoches (TX) 278.33 279.00 -0.67 7/15/2019  9:50 AM
Natural Dam Salt (TX) 2,447.28 2,457.00 -9.72 7/15/2019  12:00 AM
Navarro Mills (TX) 424.41 424.50 -0.09 7/15/2019  2:00 PM
Nocona (TX) 827.39 827.00 0.39 7/15/2019  2:00 PM
O. C. Fisher (TX) 1,873.61 1,908.00 -34.39 7/15/2019  5:00 PM
O.H. Ivie (TX) 1,544.23 1,551.50 -7.27 7/15/2019  5:45 PM
Oak Creek (TX) 1,999.97 2,000.00 -0.03 7/15/2019  12:00 AM
Palestine (TX) 345.20 345.00 0.20 7/15/2019  9:50 AM
Palo Pinto (TX) 866.93 867.00 -0.07 7/15/2019  4:15 PM
Pat Cleburne (TX) 733.42 733.60 -0.18 7/15/2019  2:00 PM
Pat Mayse (TX) 451.97 451.00 0.97 7/15/2019  9:50 AM
Phantom Hill (TX) 1,636.23 1,635.90 0.33 7/15/2019  2:30 PM
Possum Kingdom (TX) 999.14 1,000.00 -0.86 7/15/2019  10:15 AM
Proctor (TX) 1,162.40 1,162.00 0.40 7/15/2019  5:30 PM
Ray Hubbard (TX) 435.31 435.50 -0.19 7/15/2019  4:30 PM
Ray Roberts (TX) 633.20 632.50 0.70 7/15/2019  5:15 PM
Red Bluff (TX) 2,819.15 2,827.13 -7.98 7/15/2019  4:15 PM
Richland Chambers (TX) 315.05 315.00 0.05 7/15/2019  1:45 PM
Sam Rayburn (TX) 164.92 164.40 0.52 7/15/2019  5:00 PM
Somerville (TX) 247.41 238.00 9.41 7/15/2019  6:00 PM
Squaw Creek (TX) 775.14 775.00 0.14 7/15/2019  6:00 PM
Stamford (TX) 1,417.47 1,417.00 0.47 7/15/2019  6:30 PM
Steinhagen Reservoir (TX) 81.46 82.40 -0.94 7/15/2019  6:00 PM
Stillhouse Hollow (TX) 622.23 622.00 0.23 7/15/2019  6:00 PM
Tawakoni (TX) 437.86 437.50 0.36 7/15/2019  4:15 PM
Texana (TX) 42.78 44.00 -1.22 7/15/2019  6:00 PM
Texoma (TX) 619.27 617.00 2.27 7/15/2019  1:00 PM
Toledo Bend (TX LA) 170.51 172.00 -1.49 7/15/2019  6:30 PM
Travis (TX) 680.42 681.00 -0.58 7/15/2019  6:00 PM
Twin Buttes (TX) 1,934.54 1,940.00 -5.46 7/15/2019  12:00 AM
Tyler (TX) 375.34 375.50 -0.16 7/15/2019  9:50 AM
Waco (TX) 462.36 462.00 0.36 7/15/2019  12:15 AM
Waxahachie (TX) 531.58 7/15/2019  12:00 AM
Weatherford (TX) 895.92 896.00 -0.08 7/15/2019  3:45 PM
White River (TX) 2,352.47 7/15/2019  5:15 PM
Whitney (TX) 532.04 533.00 -0.96 7/15/2019  6:15 PM
Worth (TX) 593.44 594.00 -0.56 7/15/2019  6:00 PM
Wright Patman (TX) 240.19 220.60 19.59 7/15/2019  9:50 AM


CURRENT DAILY STREAMFLOW CONDITIONS
High
90th percentile
75th - 89th percentile
25th - 74th percentile
10th - 24th percentile
10th percentile
Low
Not ranked

The colored dots on this map depict streamflow conditions as a percentile, which is computed from the period of record for the current day of the year. Only stations with at least 30 years of record are used. The gray circles indicate other stations that were not ranked in percentiles either because they have fewer than 30 years of record or because they report parameters other than streamflow. Some stations, for example, measure stage only.
U.S. Daily Streamflow Conditions



U.S. Drought Monitor